createdAt,value
2022-12-23T00:01:09.512Z,8.13
2022-12-23T00:06:50.892Z,8.27
2022-12-23T00:09:36.442Z,8.34
2022-12-23T00:12:41.025Z,8.31
2022-12-23T00:15:26.718Z,8.42
2022-12-23T00:18:12.225Z,8.33
2022-12-23T00:21:09.064Z,8.31
2022-12-23T00:23:54.738Z,8.34
2022-12-23T00:26:40.132Z,7.98
2022-12-23T00:29:25.495Z,7.88
2022-12-23T00:32:10.995Z,7.89
2022-12-23T00:34:56.298Z,7.84
2022-12-23T00:37:41.927Z,7.71
2022-12-23T00:40:46.261Z,7.85
2022-12-23T00:43:31.904Z,7.67
2022-12-23T00:46:17.631Z,7.71
2022-12-23T00:49:22.155Z,7.73
2022-12-23T00:52:11.781Z,7.83
2022-12-23T00:54:57.189Z,7.66
2022-12-23T00:57:42.696Z,7.68
2022-12-23T01:00:46.516Z,7.63
2022-12-23T01:03:50.931Z,7.60
2022-12-23T01:06:36.376Z,7.53
2022-12-23T01:09:21.807Z,7.35
2022-12-23T01:12:07.478Z,7.49
2022-12-23T01:14:53.395Z,7.47
2022-12-23T01:17:39.162Z,7.72
2022-12-23T01:20:25.289Z,7.51
2022-12-23T01:23:10.976Z,7.47
2022-12-23T01:25:58.629Z,7.32
2022-12-23T01:28:44.381Z,7.39
2022-12-23T01:31:30.438Z,7.60
2022-12-23T01:34:16.426Z,7.53
2022-12-23T01:37:02.306Z,7.55
2022-12-23T01:39:47.782Z,7.48
2022-12-23T01:42:45.278Z,7.45
2022-12-23T01:45:33.441Z,7.34
2022-12-23T01:48:26.805Z,7.42
2022-12-23T01:51:23.620Z,7.31
2022-12-23T01:54:09.178Z,7.49
2022-12-23T01:56:54.669Z,7.46
2022-12-23T02:00:00.166Z,7.25
2022-12-23T02:03:05.345Z,7.46
2022-12-23T02:05:52.669Z,7.33
2022-12-23T02:08:58.178Z,7.49
2022-12-23T02:12:12.407Z,7.24
2022-12-23T02:15:50.898Z,7.12
2022-12-23T02:18:53.268Z,6.96
2022-12-23T02:22:53.035Z,6.86
2022-12-23T02:25:49.752Z,6.83
2022-12-23T02:28:58.775Z,6.80
2022-12-23T02:32:24.559Z,6.60
2022-12-23T02:35:46.810Z,6.62
2022-12-23T02:38:48.181Z,6.72
2022-12-23T02:42:07.468Z,6.77
2022-12-23T02:45:00.361Z,6.71
2022-12-23T02:47:56.464Z,6.43
2022-12-23T02:50:45.556Z,6.26
2022-12-23T02:53:42.442Z,6.35
2022-12-23T02:56:43.241Z,6.18
2022-12-23T02:59:36.775Z,6.05
2022-12-23T03:02:22.585Z,5.86
2022-12-23T03:05:46.549Z,5.98
2022-12-23T03:08:42.787Z,6.02
2022-12-23T03:12:09.583Z,5.90
2022-12-23T03:15:48.852Z,6.11
2022-12-23T03:19:05.203Z,6.31
2022-12-23T03:22:08.331Z,6.47
2022-12-23T03:25:20.667Z,6.22
2022-12-23T03:28:21.058Z,6.55
2022-12-23T03:31:12.806Z,6.79
2022-12-23T03:34:08.199Z,6.66
2022-12-23T03:36:58.662Z,6.39
2022-12-23T03:39:55.128Z,6.31
2022-12-23T03:42:44.584Z,6.36
2022-12-23T03:45:40.283Z,6.59
2022-12-23T03:48:50.395Z,6.49
2022-12-23T03:51:56.266Z,6.31
2022-12-23T03:54:53.181Z,6.51
2022-12-23T03:57:45.345Z,6.23
2022-12-23T04:00:40.829Z,6.19
2022-12-23T04:03:53.429Z,5.94
2022-12-23T04:07:07.420Z,6.41
2022-12-23T04:09:54.273Z,6.43
2022-12-23T04:12:40.416Z,6.38
2022-12-23T04:15:27.879Z,6.59
2022-12-23T04:18:13.777Z,6.69
2022-12-23T04:20:59.455Z,6.78
2022-12-23T04:23:44.769Z,6.51
2022-12-23T04:26:30.033Z,6.07
2022-12-23T04:29:16.180Z,6.09
2022-12-23T04:32:01.665Z,6.13
2022-12-23T04:34:47.088Z,6.05
2022-12-23T04:37:33.276Z,6.11
2022-12-23T04:40:18.948Z,6.37
2022-12-23T04:43:04.845Z,6.15
2022-12-23T04:45:51.968Z,6.49
2022-12-23T04:48:37.758Z,6.32
2022-12-23T04:51:23.731Z,6.53
2022-12-23T04:54:09.131Z,6.44
2022-12-23T04:56:54.518Z,5.92
2022-12-23T04:59:39.908Z,6.19
2022-12-23T05:02:27.012Z,6.13
2022-12-23T05:05:12.987Z,6.33
2022-12-23T05:08:05.563Z,5.91
2022-12-23T05:10:51.445Z,5.99
2022-12-23T05:13:36.926Z,6.18
2022-12-23T05:16:22.432Z,5.85
2022-12-23T05:19:10.022Z,6.04
2022-12-23T05:21:55.704Z,6.34
2022-12-23T05:24:41.171Z,6.25
2022-12-23T05:27:26.462Z,6.23
2022-12-23T05:30:12.331Z,5.98
2022-12-23T05:32:58.624Z,5.90
2022-12-23T05:35:44.526Z,5.99
2022-12-23T05:38:30.386Z,5.84
2022-12-23T05:41:16.833Z,5.88
2022-12-23T05:44:02.657Z,5.97
2022-12-23T05:46:47.987Z,6.14
2022-12-23T05:49:33.276Z,5.95
2022-12-23T05:52:18.815Z,5.91
2022-12-23T05:55:05.341Z,5.77
2022-12-23T05:57:52.341Z,6.02
2022-12-23T06:00:38.438Z,5.58
2022-12-23T06:03:24.694Z,5.55
2022-12-23T06:06:10.392Z,5.59
2022-12-23T06:08:59.872Z,5.70
2022-12-23T06:11:46.327Z,5.70
2022-12-23T06:14:31.728Z,5.75
2022-12-23T06:17:17.559Z,5.82
2022-12-23T06:20:04.019Z,5.79
2022-12-23T06:22:49.846Z,5.99
2022-12-23T06:25:35.288Z,6.22
2022-12-23T06:28:20.866Z,6.35
2022-12-23T06:31:06.185Z,6.43
2022-12-23T06:33:52.317Z,6.08
2022-12-23T06:36:37.654Z,6.28
2022-12-23T06:39:23.318Z,6.26
2022-12-23T06:42:09.262Z,6.34
2022-12-23T06:44:54.986Z,6.38
2022-12-23T06:47:40.650Z,6.13
2022-12-23T06:50:26.481Z,5.97
2022-12-23T06:53:12.777Z,6.02
2022-12-23T06:56:03.454Z,5.94
2022-12-23T06:58:49.174Z,5.94
2022-12-23T07:01:34.809Z,6.05
2022-12-23T07:04:20.626Z,6.27
2022-12-23T07:07:05.915Z,6.37
2022-12-23T07:09:51.181Z,6.30
2022-12-23T07:12:36.511Z,6.63
2022-12-23T07:15:21.955Z,6.44
2022-12-23T07:18:07.867Z,6.26
2022-12-23T07:20:53.303Z,6.60
2022-12-23T07:23:38.824Z,6.61
2022-12-23T07:26:24.119Z,7.05
2022-12-23T07:29:09.418Z,7.03
2022-12-23T07:31:55.086Z,7.14
2022-12-23T07:34:40.896Z,6.97
2022-12-23T07:37:26.577Z,7.19
2022-12-23T07:40:12.608Z,7.08
2022-12-23T07:42:59.445Z,7.27
2022-12-23T07:45:45.074Z,7.36
2022-12-23T07:48:30.839Z,7.15
2022-12-23T07:51:16.462Z,7.28
2022-12-23T07:54:01.743Z,7.19
2022-12-23T07:56:47.226Z,7.38
2022-12-23T07:59:32.832Z,7.45
2022-12-23T08:02:18.332Z,7.48
2022-12-23T08:05:04.771Z,7.33
2022-12-23T08:07:52.124Z,7.48
2022-12-23T08:10:41.456Z,7.67
2022-12-23T08:13:31.449Z,7.51
2022-12-23T08:16:16.830Z,7.60
2022-12-23T08:19:02.810Z,7.50
2022-12-23T08:21:48.517Z,7.04
2022-12-23T08:24:33.917Z,7.07
2022-12-23T08:27:19.731Z,7.14
2022-12-23T08:30:06.854Z,7.29
2022-12-23T08:32:52.398Z,7.56
2022-12-23T08:35:37.689Z,7.81
2022-12-23T08:38:23.276Z,7.51
2022-12-23T08:41:15.853Z,-140.73
2022-12-23T08:44:01.168Z,-140.73
2022-12-23T08:46:46.970Z,-140.73
2022-12-23T08:49:32.554Z,-140.73
2022-12-23T08:52:17.979Z,-140.73
2022-12-23T08:55:03.601Z,-140.73
2022-12-23T08:57:48.952Z,-140.73
2022-12-23T09:00:35.564Z,-140.73
2022-12-23T09:03:21.500Z,-140.73
2022-12-23T09:06:13.827Z,-140.73
2022-12-23T09:08:59.983Z,-140.73
2022-12-23T09:11:45.915Z,-140.73
2022-12-23T09:14:31.643Z,-140.73
2022-12-23T09:17:17.811Z,-140.73
2022-12-23T09:20:04.723Z,-140.73
2022-12-23T09:22:50.554Z,-140.73
2022-12-23T09:25:37.245Z,-140.73
2022-12-23T09:28:24.247Z,-140.73
2022-12-23T09:31:12.379Z,-140.73
2022-12-23T09:33:58.077Z,-140.73
2022-12-23T09:36:43.511Z,-140.73
2022-12-23T09:39:28.872Z,-140.73
2022-12-23T09:43:00.956Z,-140.73
2022-12-23T09:46:24.047Z,-140.73
2022-12-23T09:49:15.400Z,-140.73
2022-12-23T09:52:06.595Z,-140.73
2022-12-23T09:54:55.402Z,-140.73
2022-12-23T09:58:01.109Z,-140.73
2022-12-23T10:01:08.649Z,-140.73
2022-12-23T10:04:56.412Z,-140.73
2022-12-23T10:08:00.218Z,-140.73
2022-12-23T10:10:55.322Z,-140.73
2022-12-23T10:14:14.927Z,-140.73
2022-12-23T10:17:17.902Z,-140.73
2022-12-23T10:20:07.037Z,-140.73
2022-12-23T10:22:55.155Z,-140.73
2022-12-23T10:25:51.624Z,-140.73
2022-12-23T10:28:37.599Z,-140.73
2022-12-23T10:32:21.681Z,-140.73
2022-12-23T10:35:30.075Z,-140.73
2022-12-23T10:38:45.443Z,-140.73
2022-12-23T10:42:19.588Z,-140.73
2022-12-23T10:45:07.583Z,-140.73
2022-12-23T10:48:12.030Z,-140.73
2022-12-23T10:51:29.895Z,-140.73
2022-12-23T10:54:23.991Z,-140.73
2022-12-23T10:57:10.423Z,-140.73
2022-12-23T10:59:56.843Z,-140.73
2022-12-23T11:03:36.505Z,-140.73
2022-12-23T11:06:23.223Z,-140.73
2022-12-23T11:09:21.958Z,-140.73
2022-12-23T11:12:11.005Z,-140.73
2022-12-23T11:14:57.951Z,-140.73
2022-12-23T11:17:57.140Z,-140.73
2022-12-23T11:20:46.020Z,-140.73
2022-12-23T11:23:36.611Z,-140.73
2022-12-23T11:26:22.432Z,-140.73
2022-12-23T11:29:16.079Z,-140.73
2022-12-23T11:32:15.161Z,-140.73
2022-12-23T11:35:01.005Z,-140.73
2022-12-23T11:37:46.892Z,-140.73
2022-12-23T11:40:38.729Z,-140.73
2022-12-23T11:43:26.542Z,-140.73
2022-12-23T11:46:33.165Z,-140.73
2022-12-23T11:49:18.897Z,-140.73
2022-12-23T11:52:16.956Z,-140.73
2022-12-23T11:55:05.852Z,-140.73
2022-12-23T11:57:52.564Z,-140.73
2022-12-23T12:00:55.292Z,-140.73
2022-12-23T12:03:54.758Z,-140.73
2022-12-23T12:06:49.761Z,-140.73
2022-12-23T12:09:42.106Z,-140.73
2022-12-23T12:12:29.346Z,-140.73
2022-12-23T12:15:44.161Z,-140.73
2022-12-23T12:18:29.999Z,-140.73
2022-12-23T12:21:23.824Z,-140.73
2022-12-23T12:24:19.854Z,-140.73
2022-12-23T12:27:08.121Z,-140.73
2022-12-23T12:30:04.576Z,-140.73
2022-12-23T12:33:23.440Z,-140.73
2022-12-23T12:36:47.886Z,-140.73
2022-12-23T12:39:43.993Z,-140.73
2022-12-23T12:42:47.333Z,-140.73
2022-12-23T12:45:46.000Z,-140.73
2022-12-23T12:48:42.112Z,-140.73
2022-12-23T12:51:52.895Z,-140.73
2022-12-23T12:55:01.958Z,-140.73
2022-12-23T12:57:47.372Z,-140.73
2022-12-23T13:00:53.345Z,-140.73
2022-12-23T13:04:01.220Z,-140.73
2022-12-23T13:07:07.875Z,-140.73
2022-12-23T13:10:11.426Z,-140.73
2022-12-23T13:13:53.586Z,-140.73
2022-12-23T13:16:49.303Z,-140.73
2022-12-23T13:20:15.451Z,-140.73
2022-12-23T13:23:45.795Z,-140.73
2022-12-23T13:26:43.982Z,-140.73
2022-12-23T13:29:38.046Z,-140.73
2022-12-23T13:32:51.167Z,-140.73
2022-12-23T13:36:06.194Z,-140.73
2022-12-23T13:39:23.209Z,-140.73
2022-12-23T13:42:19.970Z,-140.73
2022-12-23T13:45:13.355Z,-140.73
2022-12-23T13:48:22.867Z,-140.73
2022-12-23T13:51:16.991Z,-140.73
2022-12-23T13:54:13.975Z,-140.73
2022-12-23T13:57:25.202Z,-140.73
2022-12-23T14:00:16.659Z,-140.73
2022-12-23T14:03:02.699Z,-140.73
2022-12-23T14:05:50.833Z,-140.73
2022-12-23T14:08:42.402Z,-140.73
2022-12-23T14:11:32.109Z,-140.73
2022-12-23T14:14:24.803Z,-140.73
2022-12-23T14:17:27.417Z,-140.73
2022-12-23T14:20:37.619Z,-140.73
2022-12-23T14:24:11.025Z,-140.73
2022-12-23T14:27:27.270Z,-140.73
2022-12-23T14:30:30.784Z,-140.73
2022-12-23T14:33:32.692Z,-140.73
2022-12-23T14:36:26.826Z,-140.73
2022-12-23T14:39:12.178Z,-140.73
2022-12-23T14:42:05.146Z,-140.73
2022-12-23T14:44:52.617Z,-140.73
2022-12-23T14:47:40.469Z,-140.73
2022-12-23T14:50:42.650Z,-140.73
2022-12-23T14:53:32.275Z,-140.73
2022-12-23T14:56:39.773Z,-140.73
2022-12-23T14:59:46.919Z,-140.73
2022-12-23T15:02:41.343Z,-140.73
2022-12-23T15:05:27.535Z,-140.73
2022-12-23T15:08:41.900Z,-140.73
2022-12-23T15:11:32.037Z,-140.73
2022-12-23T15:14:52.475Z,-140.73
2022-12-23T15:17:38.447Z,-140.73
2022-12-23T15:20:25.579Z,-140.73
2022-12-23T15:23:16.832Z,-140.73
2022-12-23T15:26:02.744Z,-140.73
2022-12-23T15:28:48.512Z,-140.73
2022-12-23T15:31:42.292Z,-140.73
2022-12-23T15:34:33.123Z,-140.73
2022-12-23T15:37:29.736Z,-140.73
2022-12-23T15:40:38.576Z,-140.73
2022-12-23T15:43:24.398Z,-140.73
2022-12-23T15:46:29.327Z,-140.73
2022-12-23T15:49:16.652Z,-140.73
2022-12-23T15:52:09.741Z,-140.73
2022-12-23T15:55:12.012Z,-140.73
2022-12-23T15:57:59.214Z,-140.73
2022-12-23T16:01:15.448Z,-140.73
2022-12-23T16:04:01.633Z,-140.73
2022-12-23T16:06:51.635Z,-140.73
2022-12-23T16:09:37.134Z,-140.73
2022-12-23T16:12:26.219Z,-140.73
2022-12-23T16:15:30.941Z,-140.73
2022-12-23T16:18:19.312Z,-140.73
2022-12-23T16:21:11.793Z,-140.73
2022-12-23T16:24:00.634Z,-140.73
2022-12-23T16:26:46.517Z,-140.73
2022-12-23T16:29:33.514Z,-140.73
2022-12-23T16:32:20.285Z,-140.73
2022-12-23T16:35:33.200Z,-140.73
2022-12-23T16:38:21.357Z,-140.73
2022-12-23T16:41:07.062Z,-140.73
2022-12-23T16:43:53.850Z,-140.73
2022-12-23T16:46:46.498Z,-140.73
2022-12-23T16:49:35.569Z,-140.73
2022-12-23T16:52:21.709Z,-140.73
2022-12-23T16:55:18.168Z,-140.73
2022-12-23T16:58:03.808Z,-140.73
2022-12-23T17:00:49.533Z,-140.73
2022-12-23T17:03:35.066Z,-140.73
2022-12-23T17:06:21.471Z,-140.73
2022-12-23T17:09:10.163Z,-140.73
2022-12-23T17:11:56.468Z,-140.73
2022-12-23T17:14:42.243Z,-140.73
2022-12-23T17:17:28.709Z,-140.73
2022-12-23T17:20:14.815Z,-140.73
2022-12-23T17:23:00.923Z,-140.73
2022-12-23T17:25:46.313Z,-140.73
2022-12-23T17:28:32.883Z,-140.73
2022-12-23T17:31:26.753Z,-140.73
2022-12-23T17:34:22.694Z,-140.73
2022-12-23T17:37:28.253Z,-140.73
2022-12-23T17:40:15.251Z,-140.73
2022-12-23T17:43:00.676Z,-140.73
2022-12-23T17:45:47.310Z,-140.73
2022-12-23T17:48:33.891Z,-140.73
2022-12-23T17:51:22.256Z,-140.73
2022-12-23T17:54:24.881Z,-140.73
2022-12-23T17:57:22.705Z,-140.73
2022-12-23T18:00:10.541Z,-140.73
2022-12-23T18:02:57.815Z,-140.73
2022-12-23T18:05:43.414Z,-140.73
2022-12-23T18:08:29.140Z,-140.73
2022-12-23T18:11:35.769Z,-140.73
2022-12-23T18:14:28.187Z,-140.73
2022-12-23T18:17:17.852Z,-140.73
2022-12-23T18:20:04.914Z,-140.73
2022-12-23T18:22:54.056Z,-140.73
2022-12-23T18:25:43.246Z,-140.73
2022-12-23T18:28:28.792Z,-140.73
2022-12-23T18:31:21.176Z,-140.73
2022-12-23T18:34:06.695Z,-140.73
2022-12-23T18:36:52.460Z,-140.73
2022-12-23T18:39:38.510Z,-140.73
2022-12-23T18:42:23.775Z,-140.73
2022-12-23T18:45:36.971Z,-140.73
2022-12-23T18:48:22.454Z,-140.73
2022-12-23T18:51:20.821Z,-140.73
2022-12-23T18:54:06.835Z,-140.73
2022-12-23T18:56:52.711Z,-140.73
2022-12-23T18:59:39.862Z,-140.73
2022-12-23T19:02:25.734Z,-140.73
2022-12-23T19:05:27.989Z,-140.73
2022-12-23T19:08:13.552Z,-140.73
2022-12-23T19:11:00.281Z,-140.73
2022-12-23T19:13:46.653Z,-140.73
2022-12-23T19:16:32.344Z,-140.73
2022-12-23T19:19:18.517Z,-140.73
2022-12-23T19:22:04.277Z,-140.73
2022-12-23T19:25:04.417Z,-140.73
2022-12-23T19:27:51.863Z,-140.73
2022-12-23T19:30:40.445Z,-140.73
2022-12-23T19:33:26.022Z,-140.73
2022-12-23T19:36:15.004Z,-140.73
2022-12-23T19:39:00.846Z,-140.73
2022-12-23T19:41:46.378Z,-140.73
2022-12-23T19:44:35.729Z,-140.73
2022-12-23T19:47:21.516Z,-140.73
2022-12-23T19:50:08.186Z,-140.73
2022-12-23T19:52:54.836Z,-140.73
2022-12-23T19:55:40.721Z,-140.73
2022-12-23T19:58:26.521Z,-140.73
2022-12-23T20:01:22.665Z,-140.73
2022-12-23T20:04:09.934Z,-140.73
2022-12-23T20:06:55.343Z,-140.73
2022-12-23T20:09:41.104Z,-140.73
2022-12-23T20:12:28.082Z,-140.73
2022-12-23T20:15:13.969Z,-140.73
2022-12-23T20:17:59.792Z,-140.73
2022-12-23T20:20:45.468Z,-140.73
2022-12-23T20:23:31.536Z,-140.73
2022-12-23T20:26:18.748Z,-140.73
2022-12-23T20:29:04.707Z,-140.73
2022-12-23T20:31:50.660Z,-140.73
2022-12-23T20:34:39.606Z,-140.73
2022-12-23T20:37:25.737Z,-140.73
2022-12-23T20:40:12.886Z,-140.73
2022-12-23T20:43:01.347Z,-140.73
2022-12-23T20:45:46.766Z,-140.73
2022-12-23T20:48:34.223Z,-140.73
2022-12-23T20:51:25.468Z,-140.73
2022-12-23T20:54:10.883Z,-140.73
2022-12-23T20:56:56.379Z,-140.73
2022-12-23T20:59:41.814Z,-140.73
2022-12-23T21:02:27.234Z,-140.73
2022-12-23T21:05:13.057Z,-140.73
2022-12-23T21:07:58.472Z,-140.73
2022-12-23T21:10:43.947Z,-140.73
2022-12-23T21:13:29.364Z,-140.73
2022-12-23T21:16:15.691Z,-140.73
2022-12-23T21:19:01.576Z,-140.73
2022-12-23T21:21:48.531Z,-140.73
2022-12-23T21:24:34.222Z,-140.73
2022-12-23T21:27:21.336Z,-140.73
2022-12-23T21:30:08.141Z,-140.73
2022-12-23T21:32:56.794Z,-140.73
2022-12-23T21:35:42.559Z,-140.73
2022-12-23T21:38:33.575Z,-140.73
2022-12-23T21:41:27.491Z,-140.73
2022-12-23T21:44:16.369Z,-140.73
2022-12-23T21:47:02.152Z,-140.73
2022-12-23T21:49:47.994Z,-140.73
